Time;durP1;ratioP1;P1;durP2;ratioP2;P2;SDS_P1;SDS_P2;PMS_P1;PMS_P2;Temp;Humidity;BMP_temperature;BMP_pressure;BME280_temperature;BME280_humidity;BME280_pressure;Samples;Min_cycle;Max_cycle;Signal;HPM_P1;HPM_P2
2024/01/28 00:01:41;;;;;;;34.45;13.63;;;1.50;99.90;;;;;;5062665;28;20123;-64
2024/01/28 00:04:08;;;;;;;35.42;13.55;;;1.50;99.90;;;;;;5076846;28;20226;-64
2024/01/28 00:06:34;;;;;;;38.38;14.77;;;1.60;99.90;;;;;;5077003;28;20126;-64
2024/01/28 00:09:00;;;;;;;31.45;13.15;;;1.50;99.90;;;;;;5042359;28;20039;-64
2024/01/28 00:11:26;;;;;;;34.35;13.20;;;1.60;99.90;;;;;;5077237;28;20045;-64
2024/01/28 00:13:51;;;;;;;34.35;13.00;;;1.70;99.90;;;;;;5059406;28;20328;-65
2024/01/28 00:16:20;;;;;;;40.05;13.55;;;1.80;99.90;;;;;;5077207;28;20035;-64
2024/01/28 00:18:46;;;;;;;34.00;15.13;;;1.60;99.90;;;;;;5060901;28;20032;-64
2024/01/28 00:21:12;;;;;;;35.90;14.82;;;1.70;99.90;;;;;;5076577;28;20035;-67
2024/01/28 00:23:38;;;;;;;33.45;12.38;;;1.50;99.90;;;;;;5055152;28;20434;-68
2024/01/28 00:26:04;;;;;;;37.45;13.50;;;1.70;99.90;;;;;;5039136;28;20035;-67
2024/01/28 00:28:30;;;;;;;36.03;13.35;;;1.60;99.90;;;;;;5026019;28;20035;-64
2024/01/28 00:30:56;;;;;;;35.15;13.05;;;1.40;99.90;;;;;;5060567;28;20039;-64
2024/01/28 00:33:22;;;;;;;29.33;12.27;;;1.40;99.90;;;;;;5059532;28;20126;-65
2024/01/28 00:35:48;;;;;;;29.48;12.38;;;1.40;99.90;;;;;;5080855;28;20104;-64
2024/01/28 00:38:14;;;;;;;30.42;12.93;;;1.60;99.90;;;;;;5047336;28;20040;-65
2024/01/28 00:40:39;;;;;;;38.90;12.68;;;1.40;99.90;;;;;;5043416;28;20370;-64
2024/01/28 00:43:05;;;;;;;33.55;12.35;;;1.50;99.90;;;;;;5042829;28;20112;-64
2024/01/28 00:45:31;;;;;;;30.83;12.80;;;1.60;99.90;;;;;;5059332;28;20043;-64
2024/01/28 00:47:58;;;;;;;30.80;12.52;;;1.60;99.90;;;;;;5073866;28;20109;-67
2024/01/28 00:50:24;;;;;;;27.27;11.18;;;1.60;99.90;;;;;;5072407;28;20040;-65
2024/01/28 00:52:50;;;;;;;37.25;14.25;;;1.40;99.90;;;;;;5042590;28;20055;-64
2024/01/28 00:55:16;;;;;;;29.25;10.95;;;1.60;99.90;;;;;;5059636;28;20106;-64
2024/01/28 00:57:42;;;;;;;29.92;11.07;;;1.50;99.90;;;;;;5059032;28;20326;-63
2024/01/28 01:00:09;;;;;;;36.17;12.45;;;1.50;99.90;;;;;;5054988;28;20593;-64
2024/01/28 01:02:37;;;;;;;31.80;12.88;;;1.60;99.90;;;;;;5060783;28;20568;-64
2024/01/28 01:05:03;;;;;;;33.78;11.90;;;1.50;99.90;;;;;;5071263;28;20051;-64
2024/01/28 01:07:29;;;;;;;32.20;11.40;;;1.50;99.90;;;;;;5072471;28;20047;-65
2024/01/28 01:09:56;;;;;;;24.58;11.05;;;1.50;99.90;;;;;;5055539;28;20263;-65
2024/01/28 01:12:22;;;;;;;25.17;10.68;;;1.60;99.90;;;;;;5055299;28;20044;-64
2024/01/28 01:14:48;;;;;;;29.33;11.43;;;1.50;99.90;;;;;;5054782;28;20085;-64
2024/01/28 01:17:13;;;;;;;32.47;12.27;;;1.40;99.90;;;;;;5035585;28;20036;-65
2024/01/28 01:19:39;;;;;;;28.33;12.13;;;1.60;99.90;;;;;;5033934;28;20040;-65
2024/01/28 01:22:05;;;;;;;31.30;12.07;;;1.50;99.90;;;;;;5051836;28;20373;-65
2024/01/28 01:24:31;;;;;;;30.10;12.25;;;1.60;99.90;;;;;;5039426;28;20624;-65
2024/01/28 01:26:56;;;;;;;28.20;12.07;;;1.40;99.90;;;;;;5034130;28;20115;-65
2024/01/28 01:29:23;;;;;;;30.38;12.30;;;1.60;99.90;;;;;;5051394;28;20086;-65
2024/01/28 01:31:49;;;;;;;28.17;12.65;;;1.60;99.90;;;;;;5051818;28;20117;-65
2024/01/28 01:34:15;;;;;;;28.63;12.63;;;1.50;99.90;;;;;;5035641;28;20093;-66
2024/01/28 01:36:45;;;;;;;25.58;12.25;;;1.50;99.90;;;;;;5037142;28;20036;-68
2024/01/28 01:39:12;;;;;;;27.95;11.40;;;1.60;99.90;;;;;;5051702;28;20047;-67
2024/01/28 01:41:38;;;;;;;34.67;13.25;;;1.50;99.90;;;;;;5052012;28;20501;-67
2024/01/28 01:44:04;;;;;;;26.55;12.10;;;1.60;99.90;;;;;;5069027;28;20036;-67
2024/01/28 01:46:29;;;;;;;26.50;11.07;;;1.70;99.90;;;;;;5035692;28;20044;-67
2024/01/28 01:48:57;;;;;;;29.30;11.88;;;1.50;99.90;;;;;;5068497;28;20044;-67
2024/01/28 01:51:23;;;;;;;27.77;12.90;;;1.70;99.90;;;;;;5068523;28;20051;-68
2024/01/28 01:53:50;;;;;;;23.85;11.70;;;1.60;99.90;;;;;;5042182;28;20131;-67
2024/01/28 01:56:17;;;;;;;27.48;11.45;;;1.70;99.90;;;;;;5037437;28;20051;-67
2024/01/28 01:58:44;;;;;;;24.70;11.48;;;1.50;99.90;;;;;;5055286;28;20164;-67
2024/01/28 02:01:11;;;;;;;29.58;11.88;;;1.60;99.90;;;;;;5042748;28;20048;-66
2024/01/28 02:03:37;;;;;;;28.25;11.40;;;1.60;99.90;;;;;;5058473;28;20051;-68
2024/01/28 02:06:05;;;;;;;30.58;12.35;;;1.50;99.90;;;;;;5055898;28;20074;-66
2024/01/28 02:08:32;;;;;;;27.17;12.13;;;1.50;99.90;;;;;;5055883;28;20044;-68
2024/01/28 02:11:01;;;;;;;28.30;12.15;;;1.70;99.90;;;;;;5075531;28;20407;-67
2024/01/28 02:13:27;;;;;;;24.48;11.68;;;1.60;99.90;;;;;;5054606;28;20040;-67
2024/01/28 02:15:53;;;;;;;27.13;11.07;;;1.70;99.90;;;;;;5054992;28;20048;-68
2024/01/28 02:18:19;;;;;;;32.25;12.82;;;1.70;99.90;;;;;;5053933;28;20043;-67
2024/01/28 02:20:45;;;;;;;27.58;12.27;;;1.60;99.90;;;;;;5054398;28;20043;-66
2024/01/28 02:23:19;;;;;;;29.27;12.57;;;1.40;99.90;;;;;;5056926;28;20044;-67
2024/01/28 02:25:44;;;;;;;;;;;1.40;99.90;;;;;;5071614;28;20051;-66
2024/01/28 02:28:21;;;;;;;31.25;12.43;;;1.40;99.90;;;;;;5071228;28;19923;-66
2024/01/28 02:30:47;;;;;;;28.00;12.70;;;1.40;99.90;;;;;;5071510;28;20048;-66
2024/01/28 02:33:13;;;;;;;24.25;11.85;;;1.60;99.90;;;;;;5070545;28;20164;-66
2024/01/28 02:35:42;;;;;;;26.30;12.60;;;1.50;99.90;;;;;;5054283;28;20393;-67
2024/01/28 02:38:07;;;;;;;30.27;12.27;;;1.70;99.90;;;;;;5071376;28;20040;-67
2024/01/28 02:40:33;;;;;;;30.30;13.10;;;1.70;99.90;;;;;;5054360;28;20555;-66
2024/01/28 02:43:00;;;;;;;25.40;10.90;;;1.60;99.90;;;;;;5053323;28;20292;-67
2024/01/28 02:45:25;;;;;;;30.42;13.25;;;1.50;99.90;;;;;;5039625;28;20544;-66
2024/01/28 02:47:51;;;;;;;28.77;11.77;;;1.60;99.90;;;;;;5070428;28;20047;-67
2024/01/28 02:50:17;;;;;;;26.90;12.43;;;1.50;99.90;;;;;;5061269;28;20050;-64
2024/01/28 02:52:43;;;;;;;30.27;13.23;;;1.60;99.90;;;;;;5057071;28;20047;-64
2024/01/28 02:55:09;;;;;;;32.60;12.25;;;1.70;99.90;;;;;;5057055;28;20151;-64
2024/01/28 02:57:35;;;;;;;28.35;11.73;;;1.80;99.90;;;;;;5062336;28;20728;-64
2024/01/28 03:00:03;;;;;;;27.17;11.63;;;1.80;99.90;;;;;;5055823;28;20892;-64
2024/01/28 03:02:29;;;;;;;28.42;11.25;;;1.70;99.90;;;;;;5057585;28;20047;-64
2024/01/28 03:04:55;;;;;;;27.63;12.25;;;1.80;99.90;;;;;;5057325;28;20062;-64
2024/01/28 03:07:21;;;;;;;29.55;12.45;;;1.70;99.90;;;;;;5074985;28;20036;-65
2024/01/28 03:09:47;;;;;;;29.27;12.85;;;1.70;99.90;;;;;;5042067;28;20032;-66
2024/01/28 03:12:13;;;;;;;26.80;11.73;;;1.60;99.90;;;;;;5041528;28;20581;-66
2024/01/28 03:14:39;;;;;;;24.90;11.57;;;1.80;99.90;;;;;;5058160;28;20044;-63
2024/01/28 03:17:05;;;;;;;26.33;10.98;;;1.90;99.90;;;;;;5080753;28;20674;-64
2024/01/28 03:19:31;;;;;;;25.15;10.48;;;1.90;99.90;;;;;;5063138;28;20127;-65
2024/01/28 03:21:57;;;;;;;30.45;12.45;;;2.00;99.90;;;;;;5057488;28;20556;-65
2024/01/28 03:24:23;;;;;;;23.63;11.77;;;2.00;99.90;;;;;;5027835;28;20594;-65
2024/01/28 03:26:52;;;;;;;24.52;11.40;;;1.90;99.90;;;;;;5058913;28;20093;-64
2024/01/28 03:29:18;;;;;;;26.80;12.02;;;2.00;99.90;;;;;;5058859;28;20072;-65
2024/01/28 03:31:44;;;;;;;28.08;11.00;;;2.00;99.90;;;;;;5044770;28;20049;-65
2024/01/28 03:34:10;;;;;;;30.73;12.05;;;2.10;99.90;;;;;;5058366;28;20032;-64
2024/01/28 03:36:36;;;;;;;21.95;10.50;;;2.10;99.90;;;;;;5059290;28;20032;-65
2024/01/28 03:39:04;;;;;;;29.00;11.23;;;2.10;99.90;;;;;;5062749;28;20425;-65
2024/01/28 03:41:30;;;;;;;28.20;11.73;;;2.10;99.90;;;;;;5044306;28;20040;-65
2024/01/28 03:43:56;;;;;;;28.63;11.98;;;2.10;99.90;;;;;;5074924;28;20047;-64
2024/01/28 03:46:22;;;;;;;24.63;11.63;;;2.20;99.90;;;;;;5062628;28;20109;-65
2024/01/28 03:48:47;;;;;;;26.00;11.43;;;2.20;99.90;;;;;;5058263;28;20541;-65
2024/01/28 03:51:13;;;;;;;24.75;10.90;;;2.20;99.90;;;;;;5040202;28;20775;-65
2024/01/28 03:53:39;;;;;;;24.92;11.10;;;2.20;99.90;;;;;;5058681;28;20085;-65
2024/01/28 03:56:06;;;;;;;24.73;10.48;;;2.20;99.90;;;;;;5041422;28;20031;-64
2024/01/28 03:58:32;;;;;;;29.70;12.32;;;2.20;99.90;;;;;;5041993;28;20039;-65
2024/01/28 04:00:58;;;;;;;27.08;11.25;;;2.10;99.90;;;;;;5056412;28;20279;-65
2024/01/28 04:03:23;;;;;;;27.30;11.07;;;2.20;99.90;;;;;;5039957;28;20253;-64
2024/01/28 04:05:49;;;;;;;27.10;11.52;;;2.20;99.90;;;;;;5062190;28;20051;-64
2024/01/28 04:08:15;;;;;;;27.35;11.90;;;2.30;99.90;;;;;;5063155;28;20119;-64
2024/01/28 04:10:41;;;;;;;26.17;10.77;;;2.30;99.90;;;;;;5041071;28;20051;-65
2024/01/28 04:13:06;;;;;;;25.95;11.57;;;2.40;99.90;;;;;;5073826;28;20040;-64
2024/01/28 04:15:32;;;;;;;20.50;10.52;;;2.40;99.90;;;;;;5056617;28;20077;-64
2024/01/28 04:17:58;;;;;;;26.20;11.23;;;2.20;99.90;;;;;;5073649;28;20691;-66
2024/01/28 04:20:24;;;;;;;23.25;11.18;;;2.30;99.90;;;;;;5054975;28;20316;-66
2024/01/28 04:22:49;;;;;;;27.25;12.55;;;2.10;99.90;;;;;;5055555;28;20290;-66
2024/01/28 04:25:18;;;;;;;27.30;11.90;;;2.20;99.90;;;;;;5051699;28;20075;-66
2024/01/28 04:27:44;;;;;;;24.52;10.95;;;2.20;99.90;;;;;;5050981;28;20112;-67
2024/01/28 04:30:10;;;;;;;22.05;10.75;;;2.10;99.90;;;;;;5055688;28;20344;-66
2024/01/28 04:32:36;;;;;;;28.65;11.68;;;2.30;99.90;;;;;;5054671;28;20047;-68
2024/01/28 04:35:02;;;;;;;28.13;11.98;;;2.20;99.90;;;;;;5051050;28;20304;-66
2024/01/28 04:37:29;;;;;;;29.85;12.30;;;2.10;99.90;;;;;;5051951;28;20222;-67
2024/01/28 04:40:01;;;;;;;26.27;12.30;;;2.20;99.90;;;;;;5039060;28;20036;-67
2024/01/28 04:42:27;;;;;;;33.35;12.88;;;2.00;99.90;;;;;;5051509;28;20044;-67
2024/01/28 04:44:53;;;;;;;31.10;10.55;;;2.00;99.90;;;;;;5056039;28;20413;-66
2024/01/28 04:47:19;;;;;;;22.08;10.27;;;2.10;99.90;;;;;;5037953;28;20096;-67
2024/01/28 04:49:51;;;;;;;24.55;10.93;;;2.00;99.90;;;;;;5035288;28;20071;-67
2024/01/28 04:52:17;;;;;;;23.45;10.55;;;2.00;99.90;;;;;;5052443;28;20255;-66
2024/01/28 04:54:42;;;;;;;28.48;10.68;;;2.10;99.90;;;;;;5068830;28;20032;-67
2024/01/28 04:57:09;;;;;;;22.77;10.80;;;2.10;99.90;;;;;;5056676;28;20481;-66
2024/01/28 04:59:34;;;;;;;26.85;11.35;;;2.10;99.90;;;;;;5051429;28;20068;-66
2024/01/28 05:02:00;;;;;;;24.95;10.13;;;2.00;99.90;;;;;;5038682;28;20131;-67
2024/01/28 05:04:26;;;;;;;27.67;10.95;;;1.90;99.90;;;;;;5055860;28;20200;-67
2024/01/28 05:06:52;;;;;;;22.35;10.80;;;1.90;99.90;;;;;;5051952;28;20039;-67
2024/01/28 05:09:17;;;;;;;24.30;9.75;;;1.80;99.90;;;;;;5051499;28;20228;-67
2024/01/28 05:11:44;;;;;;;25.23;10.98;;;1.80;99.90;;;;;;5040889;28;20032;-67
2024/01/28 05:14:10;;;;;;;28.05;10.45;;;1.60;99.90;;;;;;5041779;28;20034;-67
2024/01/28 05:16:37;;;;;;;24.00;9.75;;;1.70;99.90;;;;;;5050546;28;20064;-67
2024/01/28 05:19:06;;;;;;;26.25;9.80;;;1.60;99.90;;;;;;5035699;28;20494;-67
2024/01/28 05:21:32;;;;;;;20.55;9.93;;;1.50;99.90;;;;;;5050819;28;20043;-67
2024/01/28 05:23:58;;;;;;;25.52;10.40;;;1.70;99.90;;;;;;5056173;28;20048;-67
2024/01/28 05:26:23;;;;;;;24.83;10.52;;;1.70;99.90;;;;;;5068597;28;20040;-67
2024/01/28 05:28:49;;;;;;;21.35;9.70;;;1.60;99.90;;;;;;5071962;28;20637;-66
2024/01/28 05:31:15;;;;;;;20.38;9.32;;;1.60;99.90;;;;;;5042537;28;20036;-66
2024/01/28 05:33:41;;;;;;;22.95;9.82;;;1.50;99.90;;;;;;5059620;28;20047;-66
2024/01/28 05:36:16;;;;;;;27.38;10.25;;;1.70;99.90;;;;;;5055308;28;20036;-67
2024/01/28 05:38:44;;;;;;;22.85;9.65;;;1.80;99.90;;;;;;5054770;28;20040;-66
2024/01/28 05:41:14;;;;;;;21.85;9.18;;;1.70;99.90;;;;;;5038323;28;20044;-67
2024/01/28 05:43:42;;;;;;;17.85;9.48;;;1.70;99.90;;;;;;5055241;28;20063;-67
2024/01/28 05:46:08;;;;;;;21.95;9.23;;;1.60;99.90;;;;;;5038416;28;20538;-67
2024/01/28 05:48:34;;;;;;;20.00;9.48;;;1.80;99.90;;;;;;5071729;28;20048;-67
2024/01/28 05:51:00;;;;;;;22.83;9.10;;;1.60;99.90;;;;;;5055330;28;20047;-67
2024/01/28 05:53:25;;;;;;;29.02;10.20;;;1.70;99.90;;;;;;5070575;28;20043;-67
2024/01/28 05:55:52;;;;;;;21.00;9.05;;;1.60;99.90;;;;;;5038379;28;20047;-66
2024/01/28 05:58:21;;;;;;;21.55;9.35;;;1.70;99.90;;;;;;5058266;28;20060;-67
2024/01/28 06:00:48;;;;;;;25.67;8.93;;;1.50;99.90;;;;;;5033719;28;20059;-67
2024/01/28 06:03:14;;;;;;;23.70;9.98;;;1.60;99.90;;;;;;5039063;28;20044;-66
2024/01/28 06:05:40;;;;;;;20.77;8.18;;;1.60;99.90;;;;;;5051574;28;20072;-67
2024/01/28 06:08:07;;;;;;;20.67;8.75;;;1.40;99.90;;;;;;5056140;28;20040;-67
2024/01/28 06:10:33;;;;;;;15.63;8.68;;;1.40;99.90;;;;;;5035955;28;20036;-67
2024/01/28 06:12:59;;;;;;;19.05;9.10;;;1.50;99.90;;;;;;5055131;28;20580;-67
2024/01/28 06:15:24;;;;;;;17.15;8.38;;;1.60;99.90;;;;;;5038213;28;20623;-67
2024/01/28 06:17:53;;;;;;;20.40;9.35;;;1.60;99.90;;;;;;5039519;28;20389;-67
2024/01/28 06:20:19;;;;;;;18.17;8.48;;;1.60;99.90;;;;;;5022672;28;20032;-66
2024/01/28 06:22:45;;;;;;;23.20;8.45;;;1.60;99.90;;;;;;5052697;28;20759;-65
2024/01/28 06:25:11;;;;;;;20.48;7.88;;;1.70;99.90;;;;;;5041163;28;20040;-64
2024/01/28 06:27:37;;;;;;;21.80;8.85;;;1.80;99.90;;;;;;5038932;28;20051;-65
2024/01/28 06:30:06;;;;;;;21.75;8.73;;;1.60;99.90;;;;;;5039933;28;20041;-64
2024/01/28 06:32:32;;;;;;;26.00;8.32;;;1.60;99.90;;;;;;5039697;28;20643;-63
2024/01/28 06:34:58;;;;;;;19.40;7.53;;;1.60;99.90;;;;;;5088822;28;20082;-63
2024/01/28 06:37:24;;;;;;;19.00;8.77;;;1.50;99.90;;;;;;5043039;28;20082;-63
2024/01/28 06:39:51;;;;;;;21.27;8.98;;;1.50;99.90;;;;;;5027991;28;20106;-63
2024/01/28 06:42:20;;;;;;;15.18;8.18;;;1.60;99.90;;;;;;5055522;28;20055;-64
2024/01/28 06:44:49;;;;;;;16.92;8.27;;;1.40;99.90;;;;;;5055973;28;20052;-61
2024/01/28 06:47:15;;;;;;;18.70;7.68;;;1.50;99.90;;;;;;5043837;28;20121;-64
2024/01/28 06:49:41;;;;;;;16.55;8.23;;;1.40;99.90;;;;;;5042650;28;20082;-65
2024/01/28 06:52:07;;;;;;;21.35;8.65;;;1.50;99.90;;;;;;5027705;28;20729;-64
2024/01/28 06:54:33;;;;;;;15.75;7.55;;;1.50;99.90;;;;;;5055029;28;20048;-64
2024/01/28 06:56:59;;;;;;;14.02;7.57;;;1.50;99.90;;;;;;5026354;28;20098;-64
2024/01/28 06:59:25;;;;;;;26.25;9.07;;;1.50;99.90;;;;;;5056289;28;20044;-64
2024/01/28 07:01:51;;;;;;;18.70;7.80;;;1.50;99.90;;;;;;5073321;28;20056;-65
2024/01/28 07:04:17;;;;;;;17.15;7.57;;;1.50;99.90;;;;;;5045839;28;20301;-64
2024/01/28 07:06:43;;;;;;;23.73;8.18;;;1.50;99.90;;;;;;5057926;28;20040;-63
2024/01/28 07:09:09;;;;;;;21.10;8.00;;;1.60;99.90;;;;;;5044271;28;20355;-64
2024/01/28 07:11:35;;;;;;;23.65;7.93;;;1.60;99.90;;;;;;5056678;28;20135;-64
2024/01/28 07:14:01;;;;;;;20.95;7.57;;;1.60;99.90;;;;;;5041049;28;20032;-64
2024/01/28 07:16:27;;;;;;;20.02;8.27;;;1.40;99.90;;;;;;5044825;28;20252;-64
2024/01/28 07:18:53;;;;;;;17.70;7.93;;;1.40;99.90;;;;;;5044794;28;20040;-64
2024/01/28 07:21:22;;;;;;;19.58;8.63;;;1.50;99.90;;;;;;5040081;28;20413;-65
2024/01/28 07:23:48;;;;;;;17.35;7.70;;;1.40;99.90;;;;;;5057982;28;20051;-66
2024/01/28 07:26:14;;;;;;;18.27;8.07;;;1.40;99.90;;;;;;5069346;28;20039;-66
2024/01/28 07:28:40;;;;;;;16.30;8.07;;;1.30;99.90;;;;;;5069626;28;20417;-66
2024/01/28 07:31:06;;;;;;;20.40;8.65;;;1.30;99.90;;;;;;5072964;28;20044;-64
2024/01/28 07:33:33;;;;;;;18.60;8.18;;;1.20;99.90;;;;;;5039969;28;20044;-65
2024/01/28 07:35:59;;;;;;;17.33;8.07;;;1.40;99.90;;;;;;5058789;28;20071;-64
2024/01/28 07:38:26;;;;;;;22.15;8.18;;;1.30;99.90;;;;;;5055901;28;20031;-67
2024/01/28 07:40:52;;;;;;;21.33;8.18;;;1.50;99.90;;;;;;5053417;28;20047;-66
2024/01/28 07:43:19;;;;;;;17.80;7.45;;;1.30;99.90;;;;;;5042636;28;20075;-66
2024/01/28 07:45:45;;;;;;;12.82;6.93;;;1.40;99.90;;;;;;5056009;28;20110;-67
2024/01/28 07:48:11;;;;;;;15.27;7.00;;;1.40;99.90;;;;;;5057431;28;20493;-66
2024/01/28 07:50:37;;;;;;;15.48;7.10;;;1.40;99.90;;;;;;5069391;28;20189;-67
2024/01/28 07:53:03;;;;;;;14.20;6.75;;;1.40;99.90;;;;;;5039729;28;20500;-66
2024/01/28 07:55:29;;;;;;;22.33;7.80;;;1.50;99.90;;;;;;5058511;28;20046;-66
2024/01/28 07:57:56;;;;;;;20.17;6.28;;;1.40;99.90;;;;;;5074553;28;20032;-67
2024/01/28 08:00:22;;;;;;;15.20;6.53;;;1.60;99.90;;;;;;5069352;28;20387;-67
2024/01/28 08:02:48;;;;;;;20.55;6.60;;;1.60;99.90;;;;;;5052971;28;20054;-67
2024/01/28 08:05:14;;;;;;;17.38;6.88;;;1.70;99.90;;;;;;5060267;28;20047;-67
2024/01/28 08:07:40;;;;;;;15.60;6.78;;;1.60;99.90;;;;;;5038631;28;20675;-67
2024/01/28 08:10:07;;;;;;;16.95;6.35;;;1.70;99.90;;;;;;5040246;28;20047;-66
2024/01/28 08:12:33;;;;;;;18.20;7.57;;;1.70;99.90;;;;;;5019096;28;20748;-66
2024/01/28 08:14:59;;;;;;;16.48;5.70;;;1.70;99.90;;;;;;5069224;28;20052;-66
2024/01/28 08:17:26;;;;;;;15.32;5.60;;;1.80;99.90;;;;;;5052897;28;20324;-67
2024/01/28 08:19:51;;;;;;;14.98;6.05;;;1.70;99.90;;;;;;5069035;28;20063;-67
2024/01/28 08:22:17;;;;;;;11.02;6.03;;;1.80;99.90;;;;;;5052452;28;20197;-67
2024/01/28 08:24:43;;;;;;;15.25;5.80;;;1.70;99.90;;;;;;5038493;28;20039;-67
2024/01/28 08:27:09;;;;;;;17.48;6.50;;;1.90;99.90;;;;;;5069574;28;20047;-67
2024/01/28 08:29:38;;;;;;;11.38;4.85;;;1.90;99.90;;;;;;5049777;28;20071;-66
2024/01/28 08:32:05;;;;;;;14.57;5.78;;;2.00;99.90;;;;;;5035443;28;20079;-66
2024/01/28 08:34:31;;;;;;;15.23;5.28;;;1.90;99.90;;;;;;5052139;28;20119;-66
2024/01/28 08:36:57;;;;;;;12.30;4.57;;;2.00;99.90;;;;;;5037846;28;20489;-63
2024/01/28 08:39:23;;;;;;;12.57;5.15;;;2.00;99.90;;;;;;5034646;28;20493;-66
2024/01/28 08:41:49;;;;;;;14.27;4.68;;;2.10;99.90;;;;;;5052191;28;20333;-66
2024/01/28 08:44:15;;;;;;;18.58;5.53;;;2.20;99.90;;;;;;5051179;28;20039;-67
2024/01/28 08:46:41;;;;;;;13.18;5.53;;;2.20;99.90;;;;;;5038578;28;20047;-66
2024/01/28 08:49:07;;;;;;;14.40;5.15;;;2.10;99.90;;;;;;5051597;28;20044;-66
2024/01/28 08:51:33;;;;;;;14.90;5.50;;;2.10;99.90;;;;;;5052037;28;20040;-67
2024/01/28 08:53:59;;;;;;;14.85;5.05;;;2.10;99.90;;;;;;5058256;28;20079;-66
2024/01/28 08:56:24;;;;;;;14.05;4.72;;;2.20;99.90;;;;;;5069210;28;20101;-67
2024/01/28 08:58:50;;;;;;;14.00;5.35;;;2.20;99.90;;;;;;5044340;28;20048;-67
2024/01/28 09:01:16;;;;;;;12.95;5.57;;;2.30;99.90;;;;;;5057259;28;20555;-67
2024/01/28 09:03:42;;;;;;;12.43;4.90;;;2.40;99.90;;;;;;5076008;28;20054;-67
2024/01/28 09:06:08;;;;;;;13.15;4.88;;;2.50;99.90;;;;;;5054089;28;20223;-67
2024/01/28 09:08:34;;;;;;;12.73;5.25;;;2.60;99.90;;;;;;5041412;28;20130;-67
2024/01/28 09:11:01;;;;;;;13.75;5.32;;;2.70;99.90;;;;;;5057283;28;20234;-66
2024/01/28 09:13:27;;;;;;;13.60;4.95;;;2.70;99.90;;;;;;5057436;28;20393;-67
2024/01/28 09:15:53;;;;;;;12.10;4.38;;;2.90;99.90;;;;;;5037871;28;20222;-67
2024/01/28 09:18:19;;;;;;;12.80;4.60;;;3.10;99.90;;;;;;5021175;28;20055;-67
2024/01/28 09:20:45;;;;;;;12.20;4.30;;;3.30;99.90;;;;;;5041940;28;20036;-67
2024/01/28 09:23:11;;;;;;;14.07;4.10;;;3.50;99.90;;;;;;5055176;28;20067;-67
2024/01/28 09:25:40;;;;;;;12.45;3.75;;;3.70;99.90;;;;;;5037826;28;20127;-68
2024/01/28 09:28:09;;;;;;;11.82;3.75;;;3.80;99.90;;;;;;5054218;28;20072;-67
2024/01/28 09:30:35;;;;;;;12.82;3.75;;;4.00;99.90;;;;;;5055143;28;20315;-68
2024/01/28 09:33:02;;;;;;;11.63;3.40;;;4.10;99.90;;;;;;5055225;28;20044;-68
2024/01/28 09:35:29;;;;;;;10.63;3.50;;;4.20;99.90;;;;;;5071631;28;20039;-68
2024/01/28 09:37:55;;;;;;;9.77;3.28;;;4.40;99.90;;;;;;5044372;28;20032;-68
2024/01/28 09:40:21;;;;;;;10.38;3.08;;;4.60;99.90;;;;;;5057583;28;20050;-68
2024/01/28 09:43:04;;;;;;;9.00;3.15;;;4.70;99.90;;;;;;5071148;28;20043;-68
2024/01/28 09:45:30;;;;;;;10.70;3.60;;;4.70;99.90;;;;;;5071395;28;20042;-68
2024/01/28 09:47:57;;;;;;;7.75;2.88;;;4.80;99.90;;;;;;5059300;28;20219;-67
2024/01/28 09:50:23;;;;;;;7.80;2.47;;;4.90;99.90;;;;;;5071098;28;20174;-67
2024/01/28 09:52:49;;;;;;;5.13;2.40;;;5.10;99.90;;;;;;5071689;28;20044;-67
2024/01/28 09:55:15;;;;;;;10.73;2.72;;;5.30;99.90;;;;;;5072411;28;20047;-67
2024/01/28 09:57:41;;;;;;;9.45;2.30;;;5.40;99.90;;;;;;5037989;28;20040;-67
2024/01/28 10:00:08;;;;;;;9.45;3.17;;;5.60;99.90;;;;;;5058134;28;20088;-67
2024/01/28 10:02:37;;;;;;;8.93;2.92;;;5.70;99.90;;;;;;5058854;28;20146;-67
2024/01/28 10:05:05;;;;;;;8.45;2.90;;;5.60;99.90;;;;;;5057305;28;20320;-67
2024/01/28 10:07:41;;;;;;;8.93;2.85;;;5.50;99.90;;;;;;5058827;28;20043;-67
2024/01/28 10:10:13;;;;;;;7.57;2.28;;;5.40;99.90;;;;;;5041187;28;20529;-66
2024/01/28 10:12:39;;;;;;;6.25;2.20;;;5.30;99.90;;;;;;5041181;28;20288;-66
2024/01/28 10:15:20;;;;;;;9.23;2.83;;;5.20;99.90;;;;;;5061698;28;20420;-67
2024/01/28 10:17:50;;;;;;;11.25;3.28;;;5.10;99.90;;;;;;5046065;28;20095;-67
2024/01/28 10:20:16;;;;;;;9.05;3.00;;;5.10;99.90;;;;;;5074245;28;20312;-67
2024/01/28 10:22:42;;;;;;;10.15;2.92;;;5.00;99.90;;;;;;5074384;28;20203;-67
2024/01/28 10:25:12;;;;;;;12.27;3.20;;;5.00;99.90;;;;;;5057985;28;20849;-67
2024/01/28 10:27:41;;;;;;;9.15;2.72;;;5.00;99.90;;;;;;5074763;28;20433;-67
2024/01/28 10:30:09;;;;;;;10.30;3.53;;;5.00;99.90;;;;;;5058064;28;20081;-67
2024/01/28 10:32:34;;;;;;;8.60;2.45;;;5.00;99.90;;;;;;5064847;28;20040;-68
2024/01/28 10:35:00;;;;;;;9.00;2.95;;;5.00;99.90;;;;;;5039568;28;20765;-68
2024/01/28 10:37:32;;;;;;;9.43;2.80;;;5.00;99.90;;;;;;5058994;28;20228;-67
2024/01/28 10:40:07;;;;;;;8.38;2.50;;;5.00;99.90;;;;;;5075436;28;20048;-67
2024/01/28 10:42:40;;;;;;;10.40;2.58;;;4.90;99.90;;;;;;5075305;28;20628;-67
2024/01/28 10:45:07;;;;;;;;;;;5.00;99.90;;;;;;5058453;28;20044;-67
2024/01/28 10:47:36;;;;;;;8.65;2.38;;;5.00;99.90;;;;;;5057342;28;20653;-68
2024/01/28 10:50:07;;;;;;;7.75;2.58;;;5.40;99.90;;;;;;5074043;28;20086;-68
2024/01/28 10:52:35;;;;;;;7.68;2.35;;;6.30;99.90;;;;;;5059422;28;20380;-66
2024/01/28 10:55:02;;;;;;;7.63;2.47;;;7.20;99.90;;;;;;5055596;28;20313;-67
2024/01/28 10:57:28;;;;;;;6.30;1.92;;;8.00;99.90;;;;;;5057101;28;20039;-67
2024/01/28 10:59:54;;;;;;;7.80;2.40;;;8.60;99.90;;;;;;5045188;28;20484;-66
2024/01/28 11:02:21;;;;;;;6.53;2.17;;;9.10;99.90;;;;;;5061653;28;20052;-67
2024/01/28 11:04:48;;;;;;;7.03;2.35;;;9.40;99.90;;;;;;5057098;28;20039;-67
2024/01/28 11:07:19;;;;;;;6.38;1.58;;;9.70;99.90;;;;;;5038595;28;20368;-67
2024/01/28 11:09:46;;;;;;;6.32;1.80;;;9.80;60.20;;;;;;5056604;28;20043;-67
2024/01/28 11:12:13;;;;;;;5.72;1.42;;;10.10;83.90;;;;;;5073574;28;20440;-66
2024/01/28 11:14:39;;;;;;;4.65;1.55;;;10.10;56.40;;;;;;5073152;28;20417;-67
2024/01/28 11:17:05;;;;;;;3.67;1.40;;;10.00;45.20;;;;;;5043539;28;20077;-67
2024/01/28 11:19:30;;;;;;;5.80;1.65;;;10.00;22.40;;;;;;5058422;28;20198;-67
2024/01/28 11:22:02;;;;;;;5.53;1.13;;;10.10;28.50;;;;;;5057509;28;20067;-67
2024/01/28 11:24:29;;;;;;;7.03;1.30;;;10.00;34.10;;;;;;5056925;28;20126;-67
2024/01/28 11:26:58;;;;;;;5.45;1.50;;;10.10;23.20;;;;;;5075212;28;20997;-67
2024/01/28 11:29:35;;;;;;;5.65;1.70;;;10.10;18.30;;;;;;5057836;28;20524;-67
2024/01/28 11:32:04;;;;;;;5.82;1.75;;;10.10;10.70;;;;;;5073479;28;20040;-67
2024/01/28 11:34:31;;;;;;;7.72;2.08;;;10.30;24.20;;;;;;5060593;28;20028;-67
2024/01/28 11:37:00;;;;;;;6.82;1.95;;;10.50;14.60;;;;;;5060698;28;20689;-67
2024/01/28 11:39:34;;;;;;;5.53;1.58;;;10.50;27.80;;;;;;5056042;28;20039;-67
2024/01/28 11:42:01;;;;;;;6.28;1.55;;;10.80;13.70;;;;;;5054925;28;20069;-68
2024/01/28 11:44:28;;;;;;;5.40;1.40;;;11.20;28.00;;;;;;5072325;28;20120;-67
2024/01/28 11:47:02;;;;;;;5.57;1.33;;;11.40;18.50;;;;;;5048081;27;20560;-67
2024/01/28 11:49:29;;;;;;;4.57;1.10;;;11.30;8.50;;;;;;5032765;28;20130;-68
2024/01/28 11:51:55;;;;;;;5.53;1.60;;;11.30;1.00;;;;;;5031124;28;20267;-67
2024/01/28 11:54:21;;;;;;;5.30;1.25;;;11.30;3.10;;;;;;5013713;28;20491;-67
2024/01/28 11:56:48;;;;;;;4.28;1.20;;;11.30;1.00;;;;;;5047764;28;20075;-68
2024/01/28 11:59:14;;;;;;;5.53;1.38;;;11.30;1.00;;;;;;5029520;28;20056;-67
2024/01/28 12:01:40;;;;;;;4.75;1.33;;;11.20;1.00;;;;;;5012677;28;20040;-68
2024/01/28 12:04:05;;;;;;;4.28;1.33;;;11.40;1.00;;;;;;5030364;28;20040;-67
2024/01/28 12:06:35;;;;;;;6.95;1.48;;;11.20;1.00;;;;;;4995621;28;20037;-67
2024/01/28 12:09:01;;;;;;;5.18;1.65;;;11.50;1.00;;;;;;5043352;28;20036;-66
2024/01/28 12:11:28;;;;;;;3.25;1.50;;;11.60;1.00;;;;;;5001595;28;20179;-67
2024/01/28 12:13:58;;;;;;;5.85;1.30;;;11.90;1.00;;;;;;5012413;28;20425;-68
2024/01/28 12:16:25;;;;;;;5.95;1.40;;;12.10;1.00;;;;;;5014223;28;20048;-67
2024/01/28 12:18:56;;;;;;;5.35;1.23;;;12.60;1.00;;;;;;5027760;28;20041;-66
2024/01/28 12:21:23;;;;;;;4.47;1.15;;;12.70;1.00;;;;;;5014009;28;20047;-66
2024/01/28 12:23:54;;;;;;;5.22;1.40;;;12.60;1.00;;;;;;5029411;28;20509;-66
2024/01/28 12:26:21;;;;;;;7.85;1.48;;;12.80;1.00;;;;;;5031461;28;20071;-66
2024/01/28 12:28:48;;;;;;;6.20;1.67;;;12.50;1.00;;;;;;5032725;28;20036;-67
2024/01/28 12:31:14;;;;;;;5.63;1.52;;;12.30;1.00;;;;;;5013316;28;20723;-66
2024/01/28 12:33:40;;;;;;;5.88;1.25;;;12.20;1.00;;;;;;5028984;28;20125;-66
2024/01/28 12:36:06;;;;;;;4.57;1.40;;;12.30;1.00;;;;;;5013089;28;20464;-66
2024/01/28 12:38:32;;;;;;;7.30;1.30;;;12.50;1.00;;;;;;4998752;28;20111;-66
2024/01/28 12:40:58;;;;;;;6.72;0.90;;;12.50;1.00;;;;;;5011405;28;20049;-66
2024/01/28 12:43:24;;;;;;;7.60;1.80;;;12.70;1.00;;;;;;5012583;28;20656;-67